Time;durP1;ratioP1;P1;durP2;ratioP2;P2;SDS_P1;SDS_P2;PMS_P1;PMS_P2;Temp;Humidity;BMP_temperature;BMP_pressure;BME280_temperature;BME280_humidity;BME280_pressure;Samples;Min_cycle;Max_cycle;Signal;HPM_P1;HPM_P2
2022/03/13 00:02:17;;;;;;;0.82;0.40;;;26.60;99.90;;;;;;4932096;29;20106;-73
2022/03/13 00:04:52;;;;;;;2.28;0.15;;;27.40;99.90;;;;;;4934993;29;20051;-72
2022/03/13 00:07:25;;;;;;;2.00;0.68;;;28.00;99.00;;;;;;4932349;29;20367;-75
2022/03/13 00:09:53;;;;;;;4.22;0.15;;;28.20;99.00;;;;;;4925610;29;20078;-76
2022/03/13 00:12:31;;;;;;;3.33;0.10;;;28.20;98.80;;;;;;4928563;29;20051;-74
2022/03/13 00:15:01;;;;;;;2.10;0.50;;;28.70;98.60;;;;;;4931370;29;20078;-74
2022/03/13 00:17:29;;;;;;;2.67;0.10;;;29.40;96.80;;;;;;4933028;29;20106;-74
2022/03/13 00:20:02;;;;;;;0.80;0.28;;;29.00;96.50;;;;;;4926287;29;20047;-74
2022/03/13 00:22:33;;;;;;;0.93;0.20;;;29.40;97.20;;;;;;4931967;29;20032;-75
2022/03/13 00:25:02;;;;;;;1.23;0.40;;;30.00;95.90;;;;;;4933082;29;20032;-74
2022/03/13 00:27:31;;;;;;;0.90;0.25;;;30.20;95.10;;;;;;4933324;29;20339;-74
2022/03/13 00:29:59;;;;;;;3.20;0.30;;;30.20;95.30;;;;;;4930758;29;20371;-75
2022/03/13 00:32:26;;;;;;;2.00;0.40;;;29.90;94.20;;;;;;4933179;29;20039;-73
2022/03/13 00:34:53;;;;;;;1.33;0.17;;;29.20;94.00;;;;;;4932015;29;20015;-74
2022/03/13 00:37:21;;;;;;;1.83;0.35;;;28.60;95.20;;;;;;4933462;29;20101;-74
2022/03/13 00:39:51;;;;;;;2.83;0.20;;;28.10;95.50;;;;;;4923941;29;20111;-74
2022/03/13 00:42:18;;;;;;;1.88;0.30;;;27.60;95.70;;;;;;4930821;29;20079;-73
2022/03/13 00:44:46;;;;;;;2.33;0.20;;;27.00;96.50;;;;;;4933279;29;20166;-75
2022/03/13 00:47:13;;;;;;;0.95;0.15;;;26.70;96.50;;;;;;4928299;29;20031;-74
2022/03/13 00:49:40;;;;;;;3.83;0.85;;;26.50;97.40;;;;;;4930049;29;20035;-75
2022/03/13 00:52:08;;;;;;;1.75;0.10;;;26.50;97.20;;;;;;4933156;29;20032;-74
2022/03/13 00:54:35;;;;;;;3.78;0.50;;;26.40;97.20;;;;;;4931813;29;20024;-75
2022/03/13 00:57:02;;;;;;;1.42;0.90;;;26.50;97.10;;;;;;4931665;29;20031;-75
2022/03/13 00:59:30;;;;;;;1.52;0.20;;;26.60;96.90;;;;;;4932186;29;20394;-76
2022/03/13 01:01:57;;;;;;;3.55;1.00;;;27.00;96.70;;;;;;4928757;29;20039;-73
2022/03/13 01:04:24;;;;;;;3.63;0.30;;;27.20;96.50;;;;;;4930849;29;20501;-74
2022/03/13 01:06:52;;;;;;;1.45;0.22;;;27.50;96.10;;;;;;4932103;29;20047;-75
2022/03/13 01:09:19;;;;;;;1.92;0.30;;;28.00;95.20;;;;;;4931124;29;20605;-75
2022/03/13 01:11:46;;;;;;;0.80;0.10;;;27.90;95.80;;;;;;4929444;29;20089;-75
2022/03/13 01:14:16;;;;;;;1.30;0.20;;;27.80;95.20;;;;;;4927270;29;20071;-75
2022/03/13 01:16:44;;;;;;;1.83;0.25;;;27.50;94.90;;;;;;4931559;29;20030;-74
2022/03/13 01:19:12;;;;;;;0.75;0.10;;;27.10;95.40;;;;;;4931815;29;20027;-74
2022/03/13 01:21:42;;;;;;;2.45;0.20;;;26.90;96.10;;;;;;4932364;29;20155;-74
2022/03/13 01:24:13;;;;;;;2.05;0.32;;;26.50;96.20;;;;;;4927068;29;20102;-75
2022/03/13 01:26:42;;;;;;;2.70;0.50;;;26.30;97.40;;;;;;4934173;29;20382;-74
2022/03/13 01:29:12;;;;;;;1.65;0.20;;;26.20;97.10;;;;;;4930869;29;20122;-75
2022/03/13 01:31:46;;;;;;;1.00;0.22;;;26.00;97.10;;;;;;4924232;29;20036;-75
2022/03/13 01:34:46;;;;;;;0.77;0.13;;;25.70;97.60;;;;;;4923263;28;20028;-73
2022/03/13 01:37:28;;;;;;;2.88;0.30;;;25.60;97.90;;;;;;4922192;29;20051;-74
2022/03/13 01:39:57;;;;;;;1.52;0.50;;;26.00;97.80;;;;;;4922107;29;20394;-74
2022/03/13 01:42:25;;;;;;;2.90;0.30;;;26.30;98.10;;;;;;4924111;29;20864;-73
2022/03/13 01:44:52;;;;;;;3.80;0.28;;;26.60;98.10;;;;;;4924361;28;20099;-73
2022/03/13 01:47:20;;;;;;;1.77;0.28;;;26.90;96.90;;;;;;4925827;29;20043;-75
2022/03/13 01:49:48;;;;;;;1.40;0.10;;;27.00;97.70;;;;;;4928359;29;20066;-76
2022/03/13 01:52:16;;;;;;;0.73;0.40;;;26.90;98.00;;;;;;4928569;29;20493;-76
2022/03/13 01:54:45;;;;;;;6.47;1.40;;;27.00;97.60;;;;;;4928192;29;20471;-74
2022/03/13 01:57:19;;;;;;;0.20;0.10;;;26.70;96.90;;;;;;4928145;29;20490;-75
2022/03/13 01:59:51;;;;;;;1.13;0.40;;;26.30;97.10;;;;;;4926958;29;20479;-76
2022/03/13 02:02:20;;;;;;;1.20;0.50;;;26.10;98.00;;;;;;4927077;29;20079;-75
2022/03/13 02:04:52;;;;;;;1.08;0.28;;;26.10;97.80;;;;;;4930015;29;20031;-76
2022/03/13 02:07:21;;;;;;;2.55;0.25;;;26.10;97.60;;;;;;4926437;29;20042;-75
2022/03/13 02:09:49;;;;;;;2.63;0.40;;;26.00;97.20;;;;;;4928884;29;20031;-76
2022/03/13 02:12:19;;;;;;;2.72;0.55;;;26.00;97.70;;;;;;4928273;29;20024;-75
2022/03/13 02:14:49;;;;;;;1.45;0.40;;;26.10;97.60;;;;;;4928709;29;20038;-74
2022/03/13 02:17:34;;;;;;;2.30;0.40;;;26.10;97.80;;;;;;4931634;29;20046;-75
2022/03/13 02:20:03;;;;;;;0.68;0.30;;;26.10;97.80;;;;;;4926336;29;20518;-77
2022/03/13 02:22:32;;;;;;;2.20;0.38;;;25.90;97.60;;;;;;4927957;29;20050;-76
2022/03/13 02:25:00;;;;;;;4.15;0.85;;;25.60;98.30;;;;;;4927465;29;20043;-74
2022/03/13 02:27:29;;;;;;;2.25;0.57;;;25.50;98.00;;;;;;4928380;29;20044;-75
2022/03/13 02:29:57;;;;;;;1.25;0.25;;;25.50;98.20;;;;;;4927481;29;20156;-74
2022/03/13 02:32:24;;;;;;;6.32;0.57;;;25.60;98.30;;;;;;4927314;28;20047;-74
2022/03/13 02:34:54;;;;;;;2.50;0.70;;;25.70;98.30;;;;;;4926271;28;20051;-73
2022/03/13 02:37:45;;;;;;;1.83;0.50;;;25.70;98.20;;;;;;4925627;29;20046;-77
2022/03/13 02:40:22;;;;;;;2.35;0.52;;;25.80;98.50;;;;;;4926259;29;20434;-75
2022/03/13 02:42:55;;;;;;;4.63;0.68;;;25.70;99.10;;;;;;4926987;29;20038;-76
2022/03/13 02:45:34;;;;;;;3.42;0.80;;;25.80;98.30;;;;;;4926502;29;20036;-75
2022/03/13 02:48:04;;;;;;;2.97;0.57;;;25.90;98.00;;;;;;4925944;29;20038;-76
2022/03/13 02:50:32;;;;;;;1.38;0.40;;;26.10;97.70;;;;;;4926637;29;20390;-76
2022/03/13 02:52:59;;;;;;;1.67;0.30;;;26.40;97.30;;;;;;4926301;29;20028;-76
2022/03/13 02:55:27;;;;;;;2.70;1.30;;;26.60;96.70;;;;;;4925472;29;20482;-72
2022/03/13 02:57:55;;;;;;;2.60;0.43;;;26.80;96.80;;;;;;4925495;29;20032;-74
2022/03/13 03:00:39;;;;;;;1.38;0.40;;;27.00;96.70;;;;;;4927222;29;20123;-75
2022/03/13 03:03:06;;;;;;;2.15;0.32;;;26.90;97.00;;;;;;4925645;29;20044;-78
2022/03/13 03:05:35;;;;;;;1.17;0.32;;;27.00;96.40;;;;;;4926749;29;20406;-74
2022/03/13 03:08:02;;;;;;;4.38;0.50;;;27.30;96.40;;;;;;4925693;29;20449;-76
2022/03/13 03:10:29;;;;;;;2.60;0.85;;;27.30;96.60;;;;;;4927942;29;20474;-77
2022/03/13 03:12:57;;;;;;;2.85;0.35;;;27.40;95.90;;;;;;4925542;29;20038;-74
2022/03/13 03:15:26;;;;;;;1.13;0.30;;;27.80;96.00;;;;;;4925615;29;20063;-74
2022/03/13 03:17:54;;;;;;;4.22;0.88;;;28.70;97.20;;;;;;4925603;29;20483;-75
2022/03/13 03:20:22;;;;;;;1.83;0.55;;;29.70;94.50;;;;;;4926063;29;20086;-74
2022/03/13 03:22:52;;;;;;;1.10;0.38;;;30.40;94.00;;;;;;4926553;29;20031;-75
2022/03/13 03:25:24;;;;;;;0.70;0.30;;;30.90;93.30;;;;;;4927595;29;20063;-75
2022/03/13 03:27:52;;;;;;;1.40;0.40;;;31.00;92.00;;;;;;4927674;29;20107;-74
2022/03/13 03:30:25;;;;;;;1.85;0.45;;;30.80;92.10;;;;;;4932158;29;20028;-75
2022/03/13 03:32:54;;;;;;;3.75;0.95;;;30.20;92.20;;;;;;4924743;29;20031;-75
2022/03/13 03:35:25;;;;;;;3.45;0.68;;;29.50;93.20;;;;;;4927149;29;20032;-76
2022/03/13 03:37:55;;;;;;;1.73;0.52;;;28.90;93.50;;;;;;4925560;29;20497;-76
2022/03/13 03:40:26;;;;;;;2.15;0.45;;;28.30;94.20;;;;;;4927693;29;20042;-74
2022/03/13 03:42:56;;;;;;;1.35;0.40;;;27.80;94.50;;;;;;4925434;29;20038;-75
2022/03/13 03:45:24;;;;;;;2.17;0.55;;;27.60;94.80;;;;;;4927124;29;20091;-74
2022/03/13 03:47:52;;;;;;;1.65;0.60;;;27.30;95.00;;;;;;4926650;29;20077;-75
2022/03/13 03:50:20;;;;;;;4.88;0.93;;;27.10;95.40;;;;;;4927055;29;20376;-78
2022/03/13 03:52:49;;;;;;;1.70;0.70;;;27.20;95.40;;;;;;4926839;29;20109;-75
2022/03/13 03:55:16;;;;;;;1.42;0.40;;;27.00;95.20;;;;;;4926157;29;20613;-75
2022/03/13 03:57:45;;;;;;;2.88;0.63;;;26.90;95.50;;;;;;4928715;29;20138;-75
2022/03/13 04:00:13;;;;;;;3.95;1.80;;;26.90;95.50;;;;;;4930809;29;20047;-77
2022/03/13 04:02:41;;;;;;;2.47;1.05;;;26.90;95.50;;;;;;4929911;29;20044;-76
2022/03/13 04:05:10;;;;;;;1.13;0.63;;;27.10;95.30;;;;;;4932022;29;20501;-78
2022/03/13 04:07:38;;;;;;;1.05;0.50;;;27.50;95.60;;;;;;4933839;29;20087;-74
2022/03/13 04:10:10;;;;;;;2.13;0.70;;;27.60;95.70;;;;;;4931438;29;20342;-76
2022/03/13 04:12:39;;;;;;;2.88;0.55;;;27.70;95.60;;;;;;4926103;29;20036;-72
2022/03/13 04:15:06;;;;;;;1.73;0.60;;;28.20;95.60;;;;;;4925358;29;20043;-77
2022/03/13 04:17:35;;;;;;;1.70;0.47;;;28.60;95.20;;;;;;4925071;28;20042;-74
2022/03/13 04:20:03;;;;;;;1.63;0.52;;;28.90;95.30;;;;;;4924909;29;20455;-74
2022/03/13 04:22:31;;;;;;;2.13;0.68;;;29.20;95.40;;;;;;4926403;29;20055;-75
2022/03/13 04:24:58;;;;;;;2.95;0.47;;;29.10;95.30;;;;;;4924338;29;20067;-75
2022/03/13 04:27:25;;;;;;;1.08;0.47;;;29.10;95.60;;;;;;4925248;29;20106;-74
2022/03/13 04:29:53;;;;;;;3.22;0.60;;;29.10;95.80;;;;;;4926495;29;20378;-74
2022/03/13 04:32:23;;;;;;;1.55;0.40;;;29.10;95.70;;;;;;4926195;29;20106;-75
2022/03/13 04:34:50;;;;;;;1.98;0.47;;;28.70;95.80;;;;;;4927138;29;20032;-74
2022/03/13 04:37:18;;;;;;;1.77;0.40;;;28.60;95.80;;;;;;4923908;29;20036;-74
2022/03/13 04:39:47;;;;;;;1.70;0.40;;;28.60;95.90;;;;;;4926199;29;20114;-75
2022/03/13 04:42:14;;;;;;;1.00;0.35;;;28.60;95.90;;;;;;4925988;29;20039;-74
2022/03/13 04:44:42;;;;;;;1.55;0.50;;;28.50;96.10;;;;;;4923321;29;20043;-76
2022/03/13 04:47:10;;;;;;;2.83;0.63;;;28.40;96.40;;;;;;4924578;28;20040;-74
2022/03/13 04:49:37;;;;;;;1.42;0.73;;;28.40;96.90;;;;;;4926687;29;20027;-76
2022/03/13 04:52:06;;;;;;;1.38;0.47;;;28.30;96.70;;;;;;4924059;29;20165;-73
2022/03/13 04:54:33;;;;;;;1.40;0.50;;;28.00;97.00;;;;;;4924098;29;20048;-75
2022/03/13 04:57:00;;;;;;;2.28;0.40;;;28.10;96.70;;;;;;4925363;29;20565;-74
2022/03/13 04:59:28;;;;;;;1.83;0.52;;;28.10;96.70;;;;;;4924495;29;20146;-77
2022/03/13 05:01:55;;;;;;;2.85;0.32;;;28.30;96.70;;;;;;4925117;29;20036;-76
2022/03/13 05:04:22;;;;;;;4.55;0.52;;;28.20;96.40;;;;;;4939660;29;20042;-71
2022/03/13 05:06:50;;;;;;;2.90;0.47;;;27.70;96.60;;;;;;4925729;29;20032;-76
2022/03/13 05:09:17;;;;;;;1.30;0.40;;;27.20;97.20;;;;;;4925665;29;20533;-74
2022/03/13 05:11:45;;;;;;;2.30;0.63;;;26.80;97.60;;;;;;4925302;29;20047;-75
2022/03/13 05:14:13;;;;;;;1.02;0.57;;;26.50;98.10;;;;;;4924882;29;20028;-76
2022/03/13 05:16:40;;;;;;;2.58;0.80;;;26.40;98.30;;;;;;4927303;29;20047;-76
2022/03/13 05:19:07;;;;;;;0.80;0.40;;;26.80;98.30;;;;;;4924324;29;20027;-75
2022/03/13 05:21:36;;;;;;;3.78;0.50;;;27.20;97.80;;;;;;4925984;29;20098;-75
2022/03/13 05:24:04;;;;;;;1.10;0.35;;;27.50;97.40;;;;;;4928698;29;20136;-74
2022/03/13 05:26:33;;;;;;;1.10;0.38;;;27.50;96.70;;;;;;4928864;29;20035;-76
2022/03/13 05:29:01;;;;;;;3.03;0.32;;;27.60;96.80;;;;;;4929484;29;20063;-74
2022/03/13 05:31:28;;;;;;;0.47;0.20;;;27.30;96.80;;;;;;4928371;29;20159;-76
2022/03/13 05:33:56;;;;;;;0.52;0.30;;;26.90;97.10;;;;;;4929244;29;20140;-73
2022/03/13 05:36:23;;;;;;;3.33;0.40;;;26.80;97.30;;;;;;4929817;29;20091;-75
2022/03/13 05:38:50;;;;;;;0.43;0.22;;;26.80;97.30;;;;;;4927492;29;20043;-74
2022/03/13 05:41:20;;;;;;;0.63;0.20;;;26.90;97.00;;;;;;4928616;28;20055;-77
2022/03/13 05:43:49;;;;;;;2.92;0.30;;;27.00;96.90;;;;;;4927541;29;20067;-74
2022/03/13 05:46:17;;;;;;;1.77;0.68;;;27.30;96.70;;;;;;4929055;29;20054;-76
2022/03/13 05:48:44;;;;;;;1.05;0.25;;;27.40;96.40;;;;;;4926634;29;20028;-73
2022/03/13 05:51:13;;;;;;;2.30;0.82;;;27.20;96.50;;;;;;4927863;29;20032;-75
2022/03/13 05:53:41;;;;;;;1.17;0.25;;;27.30;96.50;;;;;;4927601;29;20032;-69
2022/03/13 05:56:09;;;;;;;1.63;0.40;;;27.30;96.10;;;;;;4928071;29;20023;-73
2022/03/13 05:58:36;;;;;;;1.05;0.40;;;27.30;96.40;;;;;;4928141;29;20490;-75
2022/03/13 06:01:05;;;;;;;1.05;0.20;;;27.30;96.60;;;;;;4927786;29;20032;-74
2022/03/13 06:03:33;;;;;;;1.10;0.28;;;27.30;96.50;;;;;;4927496;29;20036;-76
2022/03/13 06:06:02;;;;;;;3.85;0.43;;;27.20;96.70;;;;;;4929465;29;20047;-76
2022/03/13 06:08:31;;;;;;;0.32;0.22;;;27.10;96.70;;;;;;4927643;29;20031;-71
2022/03/13 06:10:58;;;;;;;1.35;0.30;;;26.90;97.20;;;;;;4927972;29;20027;-74
2022/03/13 06:13:26;;;;;;;1.92;0.30;;;26.80;97.40;;;;;;4907154;28;20167;-72
2022/03/13 06:15:53;;;;;;;3.38;1.02;;;26.70;97.60;;;;;;4926531;29;20028;-72
2022/03/13 06:18:21;;;;;;;1.33;0.20;;;26.70;97.80;;;;;;4927071;29;20389;-71
2022/03/13 06:20:48;;;;;;;0.43;0.20;;;26.50;97.80;;;;;;4929564;29;20074;-72
2022/03/13 06:23:16;;;;;;;2.53;0.30;;;26.30;98.20;;;;;;4926270;29;20032;-71
2022/03/13 06:25:44;;;;;;;0.95;0.20;;;26.20;98.40;;;;;;4928331;29;20149;-73
2022/03/13 06:28:12;;;;;;;0.80;0.20;;;26.20;98.40;;;;;;4927032;29;20059;-70
2022/03/13 06:30:40;;;;;;;1.13;0.30;;;26.20;98.40;;;;;;4925933;28;20031;-74
2022/03/13 06:33:07;;;;;;;2.00;0.28;;;26.20;98.50;;;;;;4925906;29;20031;-71
2022/03/13 06:35:34;;;;;;;1.73;0.20;;;26.20;98.60;;;;;;4926536;28;20119;-72
2022/03/13 06:38:02;;;;;;;0.88;0.30;;;26.10;98.70;;;;;;4926976;29;20020;-75
2022/03/13 06:40:29;;;;;;;1.85;0.30;;;26.00;98.70;;;;;;4927026;29;20122;-74
2022/03/13 06:42:59;;;;;;;1.63;0.60;;;25.70;99.00;;;;;;4926727;29;20030;-75
2022/03/13 06:45:27;;;;;;;1.85;0.30;;;25.50;99.30;;;;;;4928151;28;20054;-72
2022/03/13 06:47:55;;;;;;;2.25;0.40;;;25.50;99.50;;;;;;4926750;29;20427;-72
2022/03/13 06:50:24;;;;;;;1.83;0.45;;;25.50;99.70;;;;;;4927219;29;20050;-75
2022/03/13 06:52:53;;;;;;;3.17;0.50;;;25.50;99.70;;;;;;4926169;29;20058;-74
2022/03/13 06:55:22;;;;;;;3.85;0.98;;;25.70;99.60;;;;;;4925808;29;20028;-75
2022/03/13 06:57:50;;;;;;;2.78;0.32;;;25.70;99.40;;;;;;4927448;29;20562;-75
2022/03/13 07:00:18;;;;;;;0.77;0.20;;;25.70;99.00;;;;;;4927007;29;20104;-75
2022/03/13 07:02:45;;;;;;;1.42;0.20;;;25.70;98.90;;;;;;4926083;29;20126;-73
2022/03/13 07:05:13;;;;;;;1.30;0.38;;;25.50;99.00;;;;;;4925485;28;20502;-76
2022/03/13 07:07:40;;;;;;;0.50;0.20;;;25.50;99.20;;;;;;4926060;29;20056;-73
2022/03/13 07:10:11;;;;;;;6.22;0.47;;;25.50;99.20;;;;;;4932388;29;20047;-71
2022/03/13 07:12:40;;;;;;;1.50;0.20;;;25.40;99.20;;;;;;4924853;29;20036;-73
2022/03/13 07:15:13;;;;;;;0.73;0.40;;;25.40;99.20;;;;;;4925737;29;20035;-73
2022/03/13 07:17:42;;;;;;;2.28;0.30;;;25.20;99.30;;;;;;4928184;28;20261;-73
2022/03/13 07:20:10;;;;;;;2.03;0.40;;;25.10;99.40;;;;;;4927866;29;20035;-71
2022/03/13 07:22:37;;;;;;;1.10;0.20;;;24.90;99.90;;;;;;4926105;29;20027;-72
2022/03/13 07:25:05;;;;;;;0.75;0.20;;;24.90;99.80;;;;;;4926466;29;20061;-74
2022/03/13 07:27:32;;;;;;;2.30;0.43;;;24.80;99.90;;;;;;4925876;29;20039;-72
2022/03/13 07:30:00;;;;;;;1.13;0.22;;;24.70;99.90;;;;;;4925121;29;20395;-73
2022/03/13 07:32:27;;;;;;;1.20;0.40;;;24.70;99.90;;;;;;4928377;28;20035;-74
2022/03/13 07:34:55;;;;;;;0.93;0.20;;;24.70;99.90;;;;;;4924645;29;20406;-73
2022/03/13 07:37:22;;;;;;;1.73;0.32;;;24.70;99.90;;;;;;4927027;28;20138;-71
2022/03/13 07:39:50;;;;;;;1.38;0.20;;;24.60;99.90;;;;;;4927402;28;20032;-71
2022/03/13 07:42:17;;;;;;;0.77;0.10;;;24.50;99.90;;;;;;4934716;29;20067;-73
2022/03/13 07:44:45;;;;;;;0.40;0.20;;;24.50;99.90;;;;;;4930891;29;20098;-72
2022/03/13 07:47:13;;;;;;;1.42;0.30;;;24.40;99.90;;;;;;4930683;29;20035;-72
2022/03/13 07:49:41;;;;;;;2.78;0.63;;;24.20;99.90;;;;;;4932222;29;20027;-70
2022/03/13 07:52:08;;;;;;;1.55;0.32;;;24.10;99.90;;;;;;4927201;28;20352;-71
2022/03/13 07:54:36;;;;;;;1.25;0.65;;;24.10;99.90;;;;;;4934912;29;20110;-72
2022/03/13 07:57:03;;;;;;;2.40;0.30;;;24.00;99.90;;;;;;4924777;29;20375;-72
2022/03/13 07:59:31;;;;;;;0.40;0.30;;;24.10;99.90;;;;;;4928553;29;20039;-71
2022/03/13 08:01:58;;;;;;;2.88;0.65;;;24.00;99.90;;;;;;4928393;28;20167;-69
2022/03/13 08:04:26;;;;;;;3.72;0.40;;;24.00;99.90;;;;;;4923487;29;20032;-71
2022/03/13 08:06:54;;;;;;;0.95;0.20;;;23.90;99.90;;;;;;4925076;29;20172;-72
2022/03/13 08:09:21;;;;;;;2.83;0.70;;;23.90;99.90;;;;;;4924398;29;20051;-72
2022/03/13 08:11:49;;;;;;;5.40;0.65;;;23.90;99.90;;;;;;4925333;29;20035;-72
2022/03/13 08:14:16;;;;;;;2.83;0.88;;;23.80;99.90;;;;;;4920973;29;20032;-73
2022/03/13 08:16:43;;;;;;;1.73;0.50;;;23.80;99.90;;;;;;4925803;29;21923;-71
2022/03/13 08:19:11;;;;;;;2.05;0.22;;;23.70;99.90;;;;;;4931466;29;20102;-73
2022/03/13 08:21:38;;;;;;;0.75;0.20;;;23.60;99.90;;;;;;4932875;29;20058;-72
2022/03/13 08:24:07;;;;;;;1.45;0.28;;;23.50;99.90;;;;;;4930208;29;20015;-72
2022/03/13 08:26:39;;;;;;;2.50;0.45;;;23.40;99.90;;;;;;4927133;29;20550;-72
2022/03/13 08:29:08;;;;;;;2.22;0.20;;;23.40;99.90;;;;;;4928605;29;20031;-73
2022/03/13 08:31:36;;;;;;;1.75;0.20;;;23.40;99.90;;;;;;4933866;29;20039;-74
2022/03/13 08:34:08;;;;;;;1.48;0.30;;;23.30;99.90;;;;;;4923372;29;20020;-71
2022/03/13 08:36:43;;;;;;;1.70;0.30;;;23.30;99.90;;;;;;4930725;29;20054;-73
2022/03/13 08:39:10;;;;;;;2.95;0.20;;;23.30;99.90;;;;;;4931212;29;20043;-71
2022/03/13 08:41:38;;;;;;;0.40;0.15;;;23.20;99.90;;;;;;4933256;28;20035;-73
2022/03/13 08:44:05;;;;;;;2.20;0.20;;;23.20;99.90;;;;;;4932087;29;20031;-74
2022/03/13 08:46:33;;;;;;;2.17;0.40;;;23.20;99.90;;;;;;4927720;29;20039;-74
2022/03/13 08:49:00;;;;;;;0.50;0.30;;;23.20;99.90;;;;;;4931088;28;20031;-71
2022/03/13 08:51:29;;;;;;;2.55;0.17;;;23.20;99.90;;;;;;4933475;29;20027;-74
2022/03/13 08:53:57;;;;;;;1.83;0.20;;;23.10;99.90;;;;;;4931972;29;20039;-73
2022/03/13 08:56:26;;;;;;;0.20;0.10;;;23.10;99.90;;;;;;4929399;29;20028;-74
2022/03/13 08:58:55;;;;;;;2.55;0.45;;;23.00;99.90;;;;;;4945202;29;20479;-71
2022/03/13 09:01:24;;;;;;;1.85;0.40;;;23.00;99.90;;;;;;4924700;29;20147;-73
2022/03/13 09:03:52;;;;;;;0.35;0.28;;;23.00;99.90;;;;;;4924603;29;20044;-74
2022/03/13 09:06:19;;;;;;;4.25;0.60;;;22.90;99.90;;;;;;4929963;29;20074;-71
2022/03/13 09:08:46;;;;;;;2.63;0.32;;;22.90;99.90;;;;;;4930289;29;20023;-72
2022/03/13 09:11:17;;;;;;;5.68;0.45;;;22.90;99.90;;;;;;4928154;29;20050;-75
2022/03/13 09:13:45;;;;;;;0.45;0.20;;;22.90;99.90;;;;;;4927520;29;20028;-80
2022/03/13 09:16:13;;;;;;;2.22;0.30;;;22.90;99.90;;;;;;4927888;29;20034;-74
2022/03/13 09:18:40;;;;;;;1.98;0.30;;;22.90;99.90;;;;;;4928159;29;20549;-74
2022/03/13 09:21:08;;;;;;;2.42;0.30;;;22.90;99.90;;;;;;4925729;29;20039;-76
2022/03/13 09:23:36;;;;;;;0.70;0.20;;;22.90;99.90;;;;;;4922951;29;20398;-74
2022/03/13 09:26:04;;;;;;;2.30;0.57;;;22.90;99.90;;;;;;4925451;29;20039;-73
2022/03/13 09:28:31;;;;;;;2.70;0.43;;;23.00;99.90;;;;;;4926889;29;20490;-75
2022/03/13 09:30:59;;;;;;;5.10;0.47;;;22.90;99.90;;;;;;4925053;29;20031;-74
2022/03/13 09:33:27;;;;;;;0.50;0.32;;;22.90;99.90;;;;;;4924345;29;20072;-76
2022/03/13 09:35:55;;;;;;;2.90;0.35;;;22.90;99.90;;;;;;4923954;29;20028;-72
2022/03/13 09:38:22;;;;;;;2.00;0.60;;;22.90;99.90;;;;;;4924331;29;20028;-70
2022/03/13 09:40:49;;;;;;;1.90;0.40;;;22.80;99.90;;;;;;4926677;29;20031;-73
2022/03/13 09:43:19;;;;;;;0.57;0.40;;;22.80;99.90;;;;;;4926719;29;20115;-71
2022/03/13 09:45:47;;;;;;;4.10;0.55;;;22.70;99.90;;;;;;4924853;29;20087;-72
2022/03/13 09:48:18;;;;;;;2.25;0.40;;;22.60;99.90;;;;;;4928792;29;20103;-70
2022/03/13 09:50:45;;;;;;;5.45;0.30;;;22.60;99.90;;;;;;4935355;29;20036;-71
2022/03/13 09:53:14;;;;;;;1.55;0.30;;;22.50;99.90;;;;;;4930024;29;20478;-72
2022/03/13 09:55:41;;;;;;;4.63;0.73;;;22.40;99.90;;;;;;4930865;28;20035;-72
2022/03/13 09:58:08;;;;;;;1.45;0.30;;;22.40;99.90;;;;;;4930656;29;20027;-72
2022/03/13 10:00:37;;;;;;;3.03;0.52;;;22.40;99.90;;;;;;4932878;29;20031;-72
2022/03/13 10:03:08;;;;;;;3.35;0.73;;;22.30;99.90;;;;;;4928492;28;20402;-72
2022/03/13 10:05:46;;;;;;;1.30;0.30;;;22.40;99.90;;;;;;4927181;29;20619;-72
2022/03/13 10:08:15;;;;;;;2.22;0.73;;;22.40;99.90;;;;;;4926827;29;20040;-77
2022/03/13 10:10:50;;;;;;;1.02;0.25;;;22.40;99.90;;;;;;4932683;29;20023;-72
2022/03/13 10:13:38;;;;;;;1.00;0.20;;;22.30;99.90;;;;;;4933242;28;20478;-73
2022/03/13 10:16:07;;;;;;;0.93;0.20;;;22.20;99.90;;;;;;4931772;29;20036;-74
2022/03/13 10:18:37;;;;;;;1.42;0.20;;;22.20;99.90;;;;;;4933150;29;20040;-76
2022/03/13 10:21:09;;;;;;;3.03;0.45;;;22.20;99.90;;;;;;4934757;29;20042;-72
2022/03/13 10:23:37;;;;;;;2.47;0.30;;;22.20;99.90;;;;;;4930290;29;20071;-72
2022/03/13 10:26:05;;;;;;;3.70;0.30;;;22.10;99.90;;;;;;4930731;29;20042;-72
2022/03/13 10:28:38;;;;;;;0.60;0.20;;;22.20;99.90;;;;;;4929536;29;20043;-73
2022/03/13 10:31:11;;;;;;;1.42;0.20;;;22.10;99.90;;;;;;4924672;29;20035;-73
2022/03/13 10:33:47;;;;;;;2.38;0.55;;;22.10;99.90;;;;;;4931413;28;20105;-74
2022/03/13 10:36:21;;;;;;;2.65;0.40;;;22.00;99.90;;;;;;4932363;29;20039;-74
2022/03/13 10:38:49;;;;;;;1.48;0.30;;;22.00;99.90;;;;;;4909629;29;20071;-74
2022/03/13 10:41:17;;;;;;;3.55;0.40;;;22.00;99.90;;;;;;4926519;29;20123;-75
2022/03/13 10:43:51;;;;;;;0.98;0.17;;;21.90;99.90;;;;;;4926334;29;20760;-73
2022/03/13 10:46:34;;;;;;;3.85;0.47;;;22.00;99.90;;;;;;4932681;29;20047;-75
2022/03/13 10:49:05;;;;;;;1.23;0.28;;;21.90;99.90;;;;;;4930752;29;20032;-75
2022/03/13 10:51:34;;;;;;;1.33;0.30;;;21.90;99.90;;;;;;4931428;29;20036;-72
2022/03/13 10:54:02;;;;;;;2.35;0.50;;;21.90;99.90;;;;;;4925744;29;20051;-74
2022/03/13 10:56:30;;;;;;;1.80;0.47;;;21.90;99.90;;;;;;4929344;29;20512;-70
2022/03/13 10:58:59;;;;;;;2.30;0.35;;;21.90;99.90;;;;;;4933520;29;20470;-73
2022/03/13 11:01:29;;;;;;;2.60;0.30;;;21.90;99.90;;;;;;4930116;29;20525;-73
2022/03/13 11:04:06;;;;;;;3.25;0.45;;;21.80;99.90;;;;;;4930192;29;20035;-72
2022/03/13 11:06:33;;;;;;;0.52;0.20;;;21.80;99.90;;;;;;4930543;29;21486;-73
2022/03/13 11:09:01;;;;;;;2.47;0.40;;;21.70;99.90;;;;;;4929714;28;20493;-73
2022/03/13 11:11:29;;;;;;;2.30;0.65;;;21.60;99.90;;;;;;4927651;29;20040;-72
2022/03/13 11:14:01;;;;;;;2.40;0.25;;;21.60;99.90;;;;;;4929109;29;20042;-72
2022/03/13 11:16:30;;;;;;;0.80;0.15;;;21.60;99.90;;;;;;4932918;29;20031;-73
2022/03/13 11:19:03;;;;;;;0.50;0.20;;;21.60;99.90;;;;;;4930345;29;20092;-70
2022/03/13 11:25:02;;;;;;;1.70;0.45;;;21.50;99.90;;;;;;4929809;29;20058;-71
2022/03/13 11:27:32;;;;;;;1.60;0.30;;;21.50;99.90;;;;;;4932545;29;20039;-72
2022/03/13 11:29:59;;;;;;;1.08;0.57;;;21.50;99.90;;;;;;4931940;29;20060;-73
2022/03/13 11:32:38;;;;;;;0.85;0.22;;;21.50;99.90;;;;;;4932610;29;20043;-70
2022/03/13 11:35:14;;;;;;;1.88;0.20;;;21.50;99.90;;;;;;4926646;29;20058;-73
2022/03/13 11:37:43;;;;;;;0.95;0.38;;;21.40;99.90;;;;;;4925578;29;20028;-73
2022/03/13 11:40:13;;;;;;;1.50;0.98;;;21.50;99.90;;;;;;4932311;29;20139;-74
2022/03/13 11:42:56;;;;;;;1.70;0.20;;;21.40;99.90;;;;;;4928984;29;20110;-73
2022/03/13 11:47:57;;;;;;;2.50;0.22;;;21.30;99.90;;;;;;4925504;29;20042;-72
2022/03/13 11:50:54;;;;;;;0.50;0.40;;;21.30;99.90;;;;;;4924979;29;20115;-73
2022/03/13 11:53:24;;;;;;;1.20;0.32;;;21.40;99.90;;;;;;4930145;29;20047;-71
2022/03/13 11:56:00;;;;;;;1.63;0.25;;;21.30;99.90;;;;;;4923777;29;20394;-71
2022/03/13 11:58:50;;;;;;;1.95;0.20;;;21.30;99.90;;;;;;4931260;28;20505;-74
2022/03/13 12:01:20;;;;;;;1.20;0.60;;;21.30;99.90;;;;;;4929504;29;20031;-77
2022/03/13 12:04:14;;;;;;;2.85;0.35;;;21.30;99.90;;;;;;4932980;29;20118;-73
2022/03/13 12:06:41;;;;;;;0.57;0.40;;;21.30;99.90;;;;;;4933049;29;20036;-75
2022/03/13 12:09:12;;;;;;;1.05;0.20;;;21.30;99.90;;;;;;4932189;29;20091;-76
2022/03/13 12:12:00;;;;;;;1.35;0.22;;;21.30;99.90;;;;;;4932537;28;20059;-77
2022/03/13 12:14:53;;;;;;;0.40;0.28;;;21.30;99.90;;;;;;4928082;29;20035;-74
2022/03/13 12:17:25;;;;;;;1.95;0.40;;;21.30;99.90;;;;;;4926137;29;20035;-75
2022/03/13 12:19:58;;;;;;;1.05;0.40;;;21.20;99.90;;;;;;4932747;29;20031;-73
2022/03/13 12:22:29;;;;;;;1.17;0.35;;;21.10;99.90;;;;;;4926424;29;20150;-74
2022/03/13 12:25:01;;;;;;;1.52;0.30;;;21.10;99.90;;;;;;4931664;29;20449;-77
2022/03/13 12:27:29;;;;;;;1.17;0.50;;;21.20;99.90;;;;;;4932379;29;20498;-75
2022/03/13 12:29:58;;;;;;;3.67;0.95;;;21.10;99.90;;;;;;4930735;28;20382;-74
2022/03/13 12:32:34;;;;;;;2.83;0.47;;;21.10;99.90;;;;;;4933105;29;20098;-72
2022/03/13 12:35:05;;;;;;;1.20;0.25;;;21.10;99.90;;;;;;4939446;29;20035;-74
2022/03/13 12:37:33;;;;;;;1.15;0.22;;;21.10;99.90;;;;;;4943118;28;20095;-77
2022/03/13 12:40:02;;;;;;;0.93;0.20;;;21.10;99.90;;;;;;4936599;29;20492;-77
2022/03/13 12:42:34;;;;;;;1.85;0.25;;;21.00;99.90;;;;;;4933031;28;20042;-76
2022/03/13 12:45:09;;;;;;;0.65;0.28;;;21.00;99.90;;;;;;4933318;29;20046;-76
2022/03/13 12:47:40;;;;;;;1.65;0.60;;;21.00;99.90;;;;;;4933031;28;20032;-76
2022/03/13 12:50:10;;;;;;;3.00;0.95;;;21.00;99.90;;;;;;4931285;29;20482;-74
2022/03/13 12:52:39;;;;;;;2.58;0.68;;;20.90;99.90;;;;;;4932709;29;20038;-72
2022/03/13 12:55:08;;;;;;;3.47;0.73;;;20.90;99.90;;;;;;4927624;29;20028;-76
2022/03/13 12:57:36;;;;;;;2.80;0.47;;;20.90;99.90;;;;;;4926220;29;20035;-77
2022/03/13 13:00:09;;;;;;;0.98;0.30;;;20.80;99.90;;;;;;4933541;29;20046;-74
2022/03/13 13:02:37;;;;;;;5.60;0.60;;;20.80;99.90;;;;;;4932955;29;20048;-72
2022/03/13 13:05:07;;;;;;;0.57;0.30;;;20.80;99.90;;;;;;4928214;29;20107;-76
2022/03/13 13:07:37;;;;;;;2.67;0.32;;;20.80;99.90;;;;;;4930144;29;20115;-76